createdAt,value
2023-04-15T00:01:09.362Z,11.70
2023-04-15T00:03:37.967Z,11.70
2023-04-15T00:06:06.287Z,11.70
2023-04-15T00:08:34.468Z,11.80
2023-04-15T00:11:06.068Z,11.90
2023-04-15T00:13:42.095Z,11.80
2023-04-15T00:16:10.316Z,11.80
2023-04-15T00:18:39.790Z,11.80
2023-04-15T00:21:09.560Z,11.80
2023-04-15T00:23:39.802Z,11.70
2023-04-15T00:26:14.557Z,11.70
2023-04-15T00:28:47.717Z,11.80
2023-04-15T00:31:19.328Z,11.80
2023-04-15T00:33:56.450Z,11.80
2023-04-15T00:36:23.948Z,11.70
2023-04-15T00:38:52.536Z,11.70
2023-04-15T00:41:24.133Z,11.60
2023-04-15T00:43:53.059Z,11.70
2023-04-15T00:46:22.460Z,11.70
2023-04-15T00:48:50.493Z,11.70
2023-04-15T00:51:22.384Z,11.60
2023-04-15T00:53:58.529Z,11.70
2023-04-15T00:56:29.883Z,11.70
2023-04-15T00:59:02.450Z,11.60
2023-04-15T01:01:36.019Z,11.50
2023-04-15T01:04:13.387Z,11.50
2023-04-15T01:06:50.561Z,11.40
2023-04-15T01:09:22.833Z,11.50
2023-04-15T01:11:58.124Z,11.40
2023-04-15T01:14:41.513Z,11.40
2023-04-15T01:20:03.648Z,11.40
2023-04-15T01:22:36.338Z,11.40
2023-04-15T01:25:25.292Z,11.30
2023-04-15T01:27:54.849Z,11.20
2023-04-15T01:30:24.082Z,11.20
2023-04-15T01:33:03.743Z,11.40
2023-04-15T01:35:34.072Z,11.40
2023-04-15T01:38:11.188Z,11.50
2023-04-15T01:40:39.073Z,11.40
2023-04-15T01:43:09.973Z,11.30
2023-04-15T01:45:40.525Z,11.10
2023-04-15T01:48:09.085Z,11.10
2023-04-15T01:50:40.340Z,11.10
2023-04-15T01:53:09.598Z,11.20
2023-04-15T01:55:38.285Z,11.20
2023-04-15T02:01:20.248Z,11.30
2023-04-15T02:04:01.369Z,11.30
2023-04-15T02:17:02.051Z,11.20
2023-04-15T02:48:34.500Z,11.20
2023-04-15T02:59:03.869Z,11.20
2023-04-15T03:02:08.032Z,11.20
2023-04-15T03:10:21.973Z,11.30
2023-04-15T03:15:33.522Z,11.30
2023-04-15T03:20:53.520Z,11.20
2023-04-15T03:23:37.542Z,11.10
2023-04-15T03:26:06.499Z,11.10
2023-04-15T03:28:55.053Z,11.10
2023-04-15T03:31:27.468Z,11.20
2023-04-15T03:36:44.752Z,11.10
2023-04-15T03:39:23.282Z,11.10
2023-04-15T03:41:52.590Z,11.00
2023-04-15T03:44:19.902Z,10.90
2023-04-15T03:46:47.751Z,10.90
2023-04-15T03:52:00.115Z,10.90
2023-04-15T03:54:32.833Z,11.00
2023-04-15T03:57:02.846Z,10.90
2023-04-15T03:59:30.598Z,10.80
2023-04-15T04:01:58.224Z,10.90
2023-04-15T04:04:27.569Z,10.70
2023-04-15T04:06:57.737Z,10.80
2023-04-15T04:09:26.945Z,10.70
2023-04-15T04:11:55.252Z,10.60
2023-04-15T04:17:18.478Z,10.50
2023-04-15T04:24:13.233Z,10.40
2023-04-15T04:27:17.583Z,10.40
2023-04-15T04:29:45.258Z,10.40
2023-04-15T04:32:18.764Z,10.40
2023-04-15T04:34:49.798Z,10.40
2023-04-15T04:37:43.258Z,10.40
2023-04-15T04:40:20.924Z,10.40
2023-04-15T04:42:55.029Z,10.40
2023-04-15T04:45:26.849Z,10.30
2023-04-15T04:51:11.000Z,10.30
2023-04-15T04:56:21.778Z,10.40
2023-04-15T04:58:49.852Z,10.40
2023-04-15T05:01:17.590Z,10.30
2023-04-15T05:03:45.278Z,10.40
2023-04-15T05:06:16.981Z,10.40
2023-04-15T05:08:47.076Z,10.40
2023-04-15T05:11:15.731Z,10.40
2023-04-15T05:13:46.114Z,10.40
2023-04-15T05:16:13.287Z,10.30
2023-04-15T05:18:42.763Z,10.50
2023-04-15T05:21:20.488Z,10.40
2023-04-15T05:23:50.580Z,10.50
2023-04-15T05:26:21.107Z,10.60
2023-04-15T05:28:48.204Z,10.60
2023-04-15T05:31:16.509Z,10.60
2023-04-15T05:33:44.064Z,10.60
2023-04-15T05:36:12.717Z,10.70
2023-04-15T05:38:44.372Z,10.70
2023-04-15T05:41:18.395Z,10.70
2023-04-15T05:43:47.827Z,10.90
2023-04-15T05:46:23.313Z,10.90
2023-04-15T05:48:56.885Z,11.00
2023-04-15T05:51:29.681Z,11.00
2023-04-15T05:53:59.573Z,11.00
2023-04-15T05:56:34.728Z,11.00
2023-04-15T05:59:03.011Z,10.90
2023-04-15T06:01:31.679Z,10.90
2023-04-15T06:04:19.983Z,10.80
2023-04-15T06:10:29.931Z,10.80
2023-04-15T06:13:05.015Z,10.90
2023-04-15T06:16:04.732Z,10.80
2023-04-15T06:18:34.932Z,10.70
2023-04-15T06:21:05.708Z,10.80
2023-04-15T06:23:36.453Z,10.80
2023-04-15T06:26:08.377Z,10.80
2023-04-15T06:28:36.732Z,10.80
2023-04-15T06:31:04.234Z,10.90
2023-04-15T06:33:32.424Z,10.90
2023-04-15T06:36:00.639Z,10.80
2023-04-15T06:38:27.757Z,10.80
2023-04-15T06:40:56.700Z,10.90
2023-04-15T06:43:26.408Z,11.00
2023-04-15T06:46:19.687Z,11.20
2023-04-15T06:48:53.609Z,11.20
2023-04-15T06:51:26.534Z,11.30
2023-04-15T06:54:00.333Z,11.40
2023-04-15T06:59:25.413Z,11.40
2023-04-15T07:01:57.999Z,11.40
2023-04-15T07:04:33.259Z,11.50
2023-04-15T07:07:02.677Z,11.60
2023-04-15T07:09:37.779Z,11.60
2023-04-15T07:12:31.846Z,11.70
2023-04-15T07:15:14.710Z,11.70
2023-04-15T07:17:45.400Z,12.00
2023-04-15T07:20:22.379Z,12.30
2023-04-15T07:23:34.423Z,12.40
2023-04-15T07:28:47.132Z,12.50
2023-04-15T07:31:31.924Z,12.60
2023-04-15T07:34:02.641Z,12.60
2023-04-15T07:36:38.032Z,12.50
2023-04-15T07:39:06.653Z,12.40
2023-04-15T07:41:33.985Z,12.40
2023-04-15T07:44:05.755Z,12.40
2023-04-15T07:46:34.081Z,12.50
2023-04-15T07:52:05.302Z,12.30
2023-04-15T07:54:33.576Z,12.30
2023-04-15T07:57:03.937Z,12.30
2023-04-15T07:59:37.021Z,12.10
2023-04-15T08:02:04.670Z,12.10
2023-04-15T08:04:32.807Z,12.10
2023-04-15T08:07:05.164Z,12.00
2023-04-15T08:09:33.181Z,11.90
2023-04-15T08:12:01.029Z,11.90
2023-04-15T08:14:30.243Z,11.90
2023-04-15T08:16:57.302Z,11.90
2023-04-15T08:19:24.413Z,11.90
2023-04-15T08:21:53.636Z,11.90
2023-04-15T08:24:21.430Z,11.80
2023-04-15T08:26:48.492Z,11.90
2023-04-15T08:29:15.481Z,11.90
2023-04-15T08:31:46.353Z,12.00
2023-04-15T08:34:15.307Z,12.20
2023-04-15T08:36:43.461Z,12.30
2023-04-15T08:39:10.566Z,12.50
2023-04-15T08:41:50.421Z,12.60
2023-04-15T08:44:18.800Z,12.90
2023-04-15T08:46:48.831Z,13.00
2023-04-15T08:49:18.338Z,13.20
2023-04-15T08:51:59.105Z,13.30
2023-04-15T08:57:17.406Z,13.70
2023-04-15T08:59:46.051Z,13.80
2023-04-15T09:02:28.076Z,13.90
2023-04-15T09:04:57.039Z,14.10
2023-04-15T09:07:27.632Z,14.20
2023-04-15T09:10:00.074Z,14.20
2023-04-15T09:12:27.592Z,14.10
2023-04-15T09:14:57.553Z,14.30
2023-04-15T09:17:26.701Z,14.40
2023-04-15T09:20:16.907Z,14.60
2023-04-15T09:25:40.179Z,14.60
2023-04-15T09:28:07.201Z,14.80
2023-04-15T09:30:35.038Z,14.80
2023-04-15T09:33:08.500Z,14.80
2023-04-15T09:35:36.982Z,14.80
2023-04-15T09:38:09.961Z,14.90
2023-04-15T09:40:42.214Z,15.00
2023-04-15T09:43:39.537Z,15.10
2023-04-15T09:46:07.597Z,15.10
2023-04-15T09:48:36.702Z,15.10
2023-04-15T09:51:04.150Z,15.20
2023-04-15T09:53:41.555Z,15.30
2023-04-15T09:56:11.128Z,15.40
2023-04-15T09:58:39.452Z,15.10
2023-04-15T10:01:09.682Z,15.20
2023-04-15T10:03:45.404Z,15.30
2023-04-15T10:06:16.642Z,15.20
2023-04-15T10:08:43.699Z,15.10
2023-04-15T10:11:15.050Z,15.00
2023-04-15T10:13:46.680Z,15.00
2023-04-15T10:16:22.115Z,15.20
2023-04-15T10:18:58.387Z,15.40
2023-04-15T10:21:28.167Z,15.30
2023-04-15T10:23:55.873Z,15.40
2023-04-15T10:26:23.207Z,15.50
2023-04-15T10:28:58.464Z,15.60
2023-04-15T10:34:40.291Z,15.70
2023-04-15T10:37:12.141Z,15.70
2023-04-15T10:39:48.730Z,15.60
2023-04-15T10:42:18.005Z,15.60
2023-04-15T10:44:56.298Z,15.70
2023-04-15T10:47:26.380Z,15.80
2023-04-15T10:50:01.145Z,15.80
2023-04-15T10:52:34.971Z,15.90
2023-04-15T10:58:03.296Z,16.00
2023-04-15T11:00:40.905Z,16.10
2023-04-15T11:03:12.662Z,16.20
2023-04-15T11:05:50.692Z,16.30
2023-04-15T11:08:20.766Z,16.20
2023-04-15T11:10:52.951Z,16.30
2023-04-15T11:13:33.619Z,16.30
2023-04-15T11:16:03.406Z,16.60
2023-04-15T11:18:45.928Z,16.90
2023-04-15T11:21:15.142Z,17.40
2023-04-15T11:23:47.212Z,17.80
2023-04-15T11:26:15.382Z,18.30
2023-04-15T11:28:45.552Z,18.60
2023-04-15T11:31:15.199Z,18.90
2023-04-15T11:34:02.344Z,19.00
2023-04-15T11:36:33.708Z,19.20
2023-04-15T11:39:07.921Z,19.60
2023-04-15T11:41:40.040Z,19.80
2023-04-15T11:44:17.893Z,19.90
2023-04-15T11:46:50.151Z,20.20
2023-04-15T11:49:28.947Z,20.20
2023-04-15T11:52:01.657Z,20.40
2023-04-15T11:54:29.797Z,20.10
2023-04-15T12:00:22.567Z,19.80
2023-04-15T12:07:19.541Z,20.00
2023-04-15T12:09:56.814Z,20.70
2023-04-15T12:12:30.541Z,21.10
2023-04-15T12:14:59.514Z,21.30
2023-04-15T12:17:28.286Z,21.40
2023-04-15T12:19:57.407Z,21.50
2023-04-15T12:22:25.756Z,21.80
2023-04-15T12:24:57.368Z,21.40
2023-04-15T12:27:29.251Z,21.70
2023-04-15T12:30:05.262Z,21.80
2023-04-15T12:32:36.051Z,21.30
2023-04-15T12:35:07.254Z,21.20
2023-04-15T12:37:34.332Z,21.40
2023-04-15T12:40:01.341Z,21.60
2023-04-15T12:42:28.253Z,21.40
2023-04-15T12:44:55.304Z,21.40
2023-04-15T12:47:22.286Z,21.30
2023-04-15T12:50:00.243Z,21.10
2023-04-15T12:52:40.705Z,21.10
2023-04-15T12:55:09.005Z,21.20
2023-04-15T12:57:36.598Z,21.10
2023-04-15T13:00:13.376Z,21.30
2023-04-15T13:02:46.813Z,21.40
2023-04-15T13:05:15.911Z,21.70
2023-04-15T13:07:47.590Z,22.20
2023-04-15T13:10:14.568Z,22.50
2023-04-15T13:12:41.697Z,22.50
2023-04-15T13:15:11.365Z,22.00
2023-04-15T13:17:39.712Z,21.80
2023-04-15T13:20:09.011Z,21.90
2023-04-15T13:22:40.058Z,21.70
2023-04-15T13:25:20.585Z,21.90
2023-04-15T13:27:49.383Z,22.10
2023-04-15T13:30:18.750Z,22.20
2023-04-15T13:32:48.745Z,22.30
2023-04-15T13:35:17.033Z,22.00
2023-04-15T13:37:48.950Z,22.10
2023-04-15T13:40:20.465Z,21.70
2023-04-15T13:42:48.552Z,21.70
2023-04-15T13:45:16.299Z,21.90
2023-04-15T13:47:47.758Z,21.80
2023-04-15T13:50:22.005Z,21.30
2023-04-15T13:57:18.914Z,20.60
2023-04-15T13:59:49.265Z,20.20
2023-04-15T14:02:42.904Z,19.70
2023-04-15T14:05:11.560Z,19.20
2023-04-15T14:07:39.707Z,19.20
2023-04-15T14:10:14.957Z,19.30
2023-04-15T14:12:43.116Z,19.60
2023-04-15T14:15:13.907Z,19.60
2023-04-15T14:17:42.871Z,19.50
2023-04-15T14:20:17.177Z,19.40
2023-04-15T14:22:45.613Z,19.20
2023-04-15T14:25:23.162Z,19.10
2023-04-15T14:27:57.613Z,18.80
2023-04-15T14:30:25.657Z,18.50
2023-04-15T14:32:52.712Z,18.10
2023-04-15T14:35:20.939Z,18.10
2023-04-15T14:37:59.499Z,18.20
2023-04-15T14:40:26.418Z,18.00
2023-04-15T14:43:03.727Z,17.90
2023-04-15T14:45:36.342Z,17.60
2023-04-15T14:48:13.683Z,17.40
2023-04-15T14:54:45.794Z,17.20
2023-04-15T14:57:12.958Z,17.20
2023-04-15T14:59:41.888Z,17.10
2023-04-15T15:02:10.578Z,16.90
2023-04-15T15:04:39.351Z,16.80
2023-04-15T15:07:10.291Z,16.90
2023-04-15T15:09:40.321Z,16.80
2023-04-15T15:12:11.917Z,16.80
2023-04-15T15:14:44.929Z,16.90
2023-04-15T15:17:15.744Z,17.00
2023-04-15T15:19:44.866Z,16.90
2023-04-15T15:22:13.381Z,17.00
2023-04-15T15:24:41.681Z,17.00
2023-04-15T15:27:25.327Z,17.20
2023-04-15T15:29:54.349Z,17.40
2023-04-15T15:32:21.320Z,17.40
2023-04-15T15:34:51.766Z,17.30
2023-04-15T15:37:19.914Z,17.40
2023-04-15T15:39:47.092Z,17.10
2023-04-15T15:42:15.491Z,16.90
2023-04-15T15:44:43.756Z,16.70
2023-04-15T15:47:12.920Z,16.70
2023-04-15T15:49:40.582Z,16.70
2023-04-15T15:52:07.651Z,16.80
2023-04-15T15:54:37.688Z,16.80
2023-04-15T15:57:05.288Z,16.60
2023-04-15T15:59:35.026Z,16.40
2023-04-15T16:02:04.014Z,16.30
2023-04-15T16:04:32.240Z,16.20
2023-04-15T16:07:00.234Z,16.10
2023-04-15T16:09:27.473Z,16.00
2023-04-15T16:11:54.415Z,15.80
2023-04-15T16:14:26.549Z,15.70
2023-04-15T16:16:58.926Z,15.70
2023-04-15T16:19:25.989Z,15.60
2023-04-15T16:21:56.957Z,15.50
2023-04-15T16:26:59.390Z,15.50
2023-04-15T16:29:29.960Z,15.50
2023-04-15T16:32:11.465Z,15.50
2023-04-15T16:35:10.026Z,15.20
2023-04-15T16:37:38.378Z,15.40
2023-04-15T16:44:40.347Z,15.30
2023-04-15T16:47:35.814Z,15.20
2023-04-15T16:50:04.283Z,15.30
2023-04-15T16:52:34.134Z,15.20
2023-04-15T16:55:01.041Z,15.10
2023-04-15T16:57:38.177Z,15.20
2023-04-15T17:00:16.498Z,15.30
2023-04-15T17:02:44.064Z,15.20
2023-04-15T17:05:11.414Z,15.30
2023-04-15T17:07:47.043Z,15.40
2023-04-15T17:10:15.424Z,15.20
2023-04-15T17:12:43.361Z,15.10
2023-04-15T17:15:13.566Z,15.00
2023-04-15T17:17:43.047Z,15.10
2023-04-15T17:20:11.654Z,15.00
2023-04-15T17:22:38.619Z,15.00
2023-04-15T17:25:09.019Z,15.00
2023-04-15T17:27:39.211Z,15.00
2023-04-15T17:30:08.040Z,14.90
2023-04-15T17:32:37.278Z,14.70
2023-04-15T17:35:10.027Z,14.70
2023-04-15T17:37:37.803Z,14.40
2023-04-15T17:40:09.039Z,14.20
2023-04-15T17:42:39.383Z,14.30
2023-04-15T17:45:06.986Z,14.30
2023-04-15T17:47:34.149Z,14.30
2023-04-15T17:50:01.056Z,14.20
2023-04-15T17:52:28.048Z,14.10
2023-04-15T17:54:57.265Z,14.00
2023-04-15T17:57:25.243Z,14.00
2023-04-15T17:59:54.648Z,13.90
2023-04-15T18:02:24.406Z,13.90
2023-04-15T18:04:52.351Z,13.70
2023-04-15T18:07:20.747Z,13.70
2023-04-15T18:09:47.927Z,13.70
2023-04-15T18:12:16.452Z,13.70
2023-04-15T18:14:44.344Z,13.70
2023-04-15T18:17:11.810Z,13.70
2023-04-15T18:19:38.792Z,13.60
2023-04-15T18:22:06.209Z,13.50
2023-04-15T18:24:33.707Z,13.30
2023-04-15T18:27:02.505Z,13.20
2023-04-15T18:29:31.270Z,13.20
2023-04-15T18:32:02.742Z,13.10
2023-04-15T18:34:32.231Z,13.10
2023-04-15T18:37:05.377Z,12.90
2023-04-15T18:39:33.883Z,12.70
2023-04-15T18:42:01.875Z,12.70
2023-04-15T18:44:28.823Z,12.40
2023-04-15T18:46:56.888Z,12.40
2023-04-15T18:49:23.822Z,12.30
2023-04-15T18:51:54.423Z,12.30
2023-04-15T18:54:21.477Z,12.30
2023-04-15T18:56:48.682Z,12.20
2023-04-15T18:59:29.291Z,12.20
2023-04-15T19:02:06.687Z,12.20
2023-04-15T19:04:43.189Z,12.10
2023-04-15T19:07:13.619Z,12.10
2023-04-15T19:09:47.417Z,12.00
2023-04-15T19:12:17.606Z,12.00
2023-04-15T19:14:48.465Z,11.90
2023-04-15T19:17:54.524Z,11.70
2023-04-15T19:20:25.516Z,11.80
2023-04-15T19:22:57.123Z,11.70
2023-04-15T19:25:28.724Z,11.50
2023-04-15T19:27:59.950Z,11.40
2023-04-15T19:30:36.245Z,11.30
2023-04-15T19:33:04.523Z,11.30
2023-04-15T19:35:34.735Z,11.20
2023-04-15T19:38:06.296Z,11.20
2023-04-15T19:40:34.312Z,11.30
2023-04-15T19:43:01.644Z,11.10
2023-04-15T19:45:28.600Z,11.00
2023-04-15T19:48:00.865Z,11.00
2023-04-15T19:50:37.384Z,11.00
2023-04-15T19:53:07.849Z,11.00
2023-04-15T19:55:34.929Z,11.00
2023-04-15T19:58:39.345Z,10.90
2023-04-15T20:01:11.661Z,10.90
2023-04-15T20:03:40.306Z,10.80
2023-04-15T20:06:07.244Z,10.60
2023-04-15T20:08:40.225Z,10.60
2023-04-15T20:11:12.008Z,10.40
2023-04-15T20:13:42.363Z,10.40
2023-04-15T20:16:12.410Z,10.20
2023-04-15T20:18:42.494Z,10.20
2023-04-15T20:21:11.000Z,10.20
2023-04-15T20:23:38.336Z,10.20
2023-04-15T20:26:06.674Z,10.20
2023-04-15T20:28:37.323Z,10.10
2023-04-15T20:31:10.102Z,10.00
2023-04-15T20:33:40.635Z,10.00
2023-04-15T20:36:08.311Z,10.00
2023-04-15T20:38:38.597Z,9.80
2023-04-15T20:41:06.791Z,9.80
2023-04-15T20:43:37.432Z,9.80
2023-04-15T20:46:13.886Z,9.70
2023-04-15T20:48:49.610Z,9.70
2023-04-15T20:51:19.677Z,9.60
2023-04-15T20:53:47.794Z,9.60
2023-04-15T20:56:20.927Z,9.60
2023-04-15T20:58:48.190Z,9.60
2023-04-15T21:01:20.236Z,9.70
2023-04-15T21:03:47.692Z,9.60
2023-04-15T21:06:16.988Z,9.60
2023-04-15T21:08:53.881Z,9.50
2023-04-15T21:11:45.819Z,9.40
2023-04-15T21:14:39.846Z,9.30
2023-04-15T21:17:11.341Z,9.20
2023-04-15T21:19:44.776Z,9.20
2023-04-15T21:22:19.842Z,9.30
2023-04-15T21:24:46.873Z,9.40
2023-04-15T21:27:13.843Z,9.20
2023-04-15T21:29:41.696Z,9.30
2023-04-15T21:32:09.863Z,9.30
2023-04-15T21:34:38.136Z,9.30
2023-04-15T21:37:07.599Z,9.30
2023-04-15T21:39:34.961Z,9.30
2023-04-15T21:42:02.823Z,9.20
2023-04-15T21:44:32.282Z,9.20
2023-04-15T21:47:01.223Z,9.20
2023-04-15T21:49:29.384Z,9.20
2023-04-15T21:52:01.107Z,9.20
2023-04-15T21:54:34.256Z,9.10
2023-04-15T21:57:03.136Z,9.10
2023-04-15T21:59:30.647Z,9.10
2023-04-15T22:01:57.628Z,9.00
2023-04-15T22:04:25.917Z,9.00
2023-04-15T22:06:56.104Z,8.90
2023-04-15T22:09:24.209Z,8.90
2023-04-15T22:11:51.144Z,8.90
2023-04-15T22:14:18.582Z,8.90
2023-04-15T22:16:47.512Z,8.90
2023-04-15T22:19:14.438Z,8.90
2023-04-15T22:21:44.462Z,8.80
2023-04-15T22:24:36.730Z,8.80
2023-04-15T22:27:02.070Z,8.70
2023-04-15T22:29:30.773Z,8.80
2023-04-15T22:31:59.402Z,8.90
2023-04-15T22:34:26.724Z,8.90
2023-04-15T22:36:58.088Z,9.00
2023-04-15T22:39:26.740Z,8.90
2023-04-15T22:41:55.435Z,8.90
2023-04-15T22:44:24.489Z,8.90
2023-04-15T22:46:52.875Z,8.90
2023-04-15T22:49:22.387Z,8.90
2023-04-15T22:51:49.807Z,8.90
2023-04-15T22:54:16.766Z,8.90
2023-04-15T22:56:43.632Z,8.80
2023-04-15T22:59:11.702Z,8.90
2023-04-15T23:01:39.511Z,9.00
2023-04-15T23:04:08.908Z,9.00
2023-04-15T23:06:49.761Z,8.90
2023-04-15T23:09:16.820Z,8.90
2023-04-15T23:11:44.137Z,9.00
2023-04-15T23:14:11.083Z,9.00
2023-04-15T23:16:40.412Z,9.00
2023-04-15T23:19:08.995Z,9.00
2023-04-15T23:21:36.285Z,9.00
2023-04-15T23:24:04.321Z,8.90
2023-04-15T23:26:33.834Z,8.90
2023-04-15T23:29:01.671Z,8.90
2023-04-15T23:31:31.749Z,9.00
2023-04-15T23:33:58.988Z,9.00
2023-04-15T23:36:29.280Z,9.10
2023-04-15T23:38:56.571Z,9.20
2023-04-15T23:41:29.754Z,9.20
2023-04-15T23:43:57.715Z,9.20
2023-04-15T23:46:28.813Z,9.30
2023-04-15T23:48:57.316Z,9.30
2023-04-15T23:51:27.470Z,9.20
2023-04-15T23:53:56.787Z,9.30
2023-04-15T23:56:26.431Z,9.40
2023-04-15T23:58:54.231Z,9.30
